Time;durP1;ratioP1;P1;durP2;ratioP2;P2;SDS_P1;SDS_P2;PMS_P1;PMS_P2;Temp;Humidity;BMP_temperature;BMP_pressure;BME280_temperature;BME280_humidity;BME280_pressure;Samples;Min_cycle;Max_cycle;Signal;HPM_P1;HPM_P2
2022/02/26 00:00:08;;;;;;;13.95;7.30;;;;;;;0.68;55.44;99778.53;5073856;28;20028;-69
2022/02/26 00:02:34;;;;;;;11.27;6.75;;;;;;;0.78;54.90;99771.09;5075767;28;20040;-70
2022/02/26 00:04:59;;;;;;;15.13;7.80;;;;;;;0.74;54.78;99772.16;5075496;28;20461;-71
2022/02/26 00:07:25;;;;;;;13.68;7.55;;;;;;;0.79;55.35;99791.28;5073733;28;20083;-70
2022/02/26 00:09:50;;;;;;;15.73;7.45;;;;;;;0.81;54.84;99785.00;5072499;28;20032;-69
2022/02/26 00:12:16;;;;;;;14.07;7.80;;;;;;;0.74;55.29;99777.44;5073502;28;20025;-70
2022/02/26 00:14:41;;;;;;;12.60;7.25;;;;;;;0.88;54.55;99795.31;5073105;28;20024;-70
2022/02/26 00:17:07;;;;;;;15.15;7.63;;;;;;;0.91;54.98;99789.91;5072965;28;20033;-71
2022/02/26 00:19:34;;;;;;;12.77;7.57;;;;;;;0.86;54.77;99782.19;5072881;28;20342;-69
2022/02/26 00:22:00;;;;;;;13.10;7.18;;;;;;;0.91;55.09;99788.13;5073201;28;20044;-69
2022/02/26 00:24:26;;;;;;;15.88;8.50;;;;;;;0.89;54.76;99784.69;5072728;28;20032;-69
2022/02/26 00:26:51;;;;;;;15.35;8.13;;;;;;;0.92;54.50;99787.19;5072784;28;20029;-68
2022/02/26 00:29:17;;;;;;;16.05;7.72;;;;;;;1.02;54.63;99800.84;5073311;28;20036;-70
2022/02/26 00:31:43;;;;;;;13.65;8.13;;;;;;;1.03;54.38;99799.94;5073061;28;20103;-68
2022/02/26 00:34:08;;;;;;;11.25;7.07;;;;;;;1.00;54.43;99803.56;5072747;28;20074;-67
2022/02/26 00:36:34;;;;;;;12.73;7.68;;;;;;;0.96;55.15;99801.13;5072817;28;20028;-68
2022/02/26 00:38:59;;;;;;;13.48;7.38;;;;;;;0.69;54.39;99759.16;5072954;28;20491;-68
2022/02/26 00:41:28;;;;;;;15.05;7.60;;;;;;;0.89;54.99;99802.31;5072350;28;20031;-66
2022/02/26 00:43:54;;;;;;;13.45;8.15;;;;;;;0.87;55.21;99798.88;5072493;28;20481;-67
2022/02/26 00:46:19;;;;;;;13.52;7.68;;;;;;;0.67;54.95;99772.38;5073167;28;20029;-64
2022/02/26 00:51:29;;;;;;;15.50;7.47;;;;;;;0.91;54.77;99801.28;5072025;28;20036;-67
2022/02/26 00:53:54;;;;;;;17.92;7.60;;;;;;;0.92;54.83;99810.91;5054532;28;20431;-68
2022/02/26 00:56:20;;;;;;;14.80;7.78;;;;;;;0.90;54.86;99799.59;5072611;28;20032;-63
2022/02/26 00:58:46;;;;;;;13.27;7.57;;;;;;;0.87;54.87;99804.13;5072830;28;20545;-67
2022/02/26 01:01:11;;;;;;;11.57;7.07;;;;;;;0.81;54.76;99792.91;5072060;28;20028;-70
2022/02/26 01:03:37;;;;;;;14.82;7.43;;;;;;;0.85;54.85;99812.97;5072133;28;20070;-69
2022/02/26 01:06:03;;;;;;;14.30;7.10;;;;;;;0.58;55.10;99772.78;5054321;28;20454;-67
2022/02/26 01:08:28;;;;;;;14.88;7.93;;;;;;;0.74;55.25;99799.34;5054444;28;20028;-68
2022/02/26 01:10:54;;;;;;;14.82;7.07;;;;;;;0.80;55.26;99806.16;5071727;28;20028;-68
2022/02/26 01:13:19;;;;;;;11.45;7.05;;;;;;;0.84;55.14;99806.00;5054246;28;20358;-67
2022/02/26 01:15:45;;;;;;;14.15;7.53;;;;;;;0.89;54.77;99812.84;5054131;28;20032;-67
2022/02/26 01:18:10;;;;;;;12.35;7.25;;;;;;;0.82;55.09;99799.06;5072267;28;20044;-69
2022/02/26 01:20:36;;;;;;;13.40;7.15;;;;;;;0.80;55.10;99793.00;5071572;28;20032;-68
2022/02/26 01:23:03;;;;;;;14.60;7.45;;;;;;;0.79;55.10;99791.28;5071043;28;20052;-67
2022/02/26 01:25:28;;;;;;;16.38;7.45;;;;;;;0.83;55.23;99798.97;5071963;28;20063;-67
2022/02/26 01:27:54;;;;;;;14.10;7.53;;;;;;;0.83;55.49;99809.50;5071855;28;20144;-67
2022/02/26 01:30:19;;;;;;;16.30;7.65;;;;;;;0.75;55.03;99794.97;5054142;28;20051;-66
2022/02/26 01:32:45;;;;;;;13.82;7.75;;;;;;;0.83;55.45;99809.50;5053529;28;20044;-66
2022/02/26 01:35:11;;;;;;;12.25;7.40;;;;;;;0.85;55.60;99807.69;5071638;28;20113;-69
2022/02/26 01:37:37;;;;;;;15.00;7.40;;;;;;;0.76;55.46;99792.25;5071624;28;20032;-68
2022/02/26 01:40:03;;;;;;;11.75;6.90;;;;;;;0.80;54.95;99793.81;5071548;28;20067;-68
2022/02/26 01:42:29;;;;;;;13.55;7.90;;;;;;;0.84;55.01;99805.13;5071267;28;20032;-70
2022/02/26 01:44:55;;;;;;;13.63;7.38;;;;;;;0.84;55.17;99799.84;5071163;28;20028;-69
2022/02/26 01:47:21;;;;;;;16.42;7.85;;;;;;;0.77;55.56;99795.75;5071654;28;20124;-69
2022/02/26 01:49:48;;;;;;;14.70;8.40;;;;;;;0.82;55.60;99799.06;5071249;28;20032;-67
2022/02/26 01:52:17;;;;;;;11.65;7.20;;;;;;;0.84;55.58;99799.84;5071098;28;20032;-69
2022/02/26 01:54:45;;;;;;;12.60;7.53;;;;;;;0.80;55.66;99808.81;5053657;28;20604;-68
2022/02/26 01:57:11;;;;;;;13.30;7.20;;;;;;;0.81;55.62;99810.50;5071219;28;20041;-67
2022/02/26 01:59:37;;;;;;;13.63;7.57;;;;;;;0.81;56.01;99816.63;5071029;28;20036;-69
2022/02/26 02:02:03;;;;;;;14.13;7.97;;;;;;;0.65;55.93;99776.03;5053283;28;20031;-69
2022/02/26 02:04:29;;;;;;;16.60;7.40;;;;;;;0.91;55.81;99805.72;5071075;28;20397;-69
2022/02/26 02:06:55;;;;;;;13.93;7.18;;;;;;;0.92;56.00;99816.19;5053286;28;20032;-67
2022/02/26 02:09:20;;;;;;;15.95;7.75;;;;;;;0.93;55.55;99817.06;5071683;28;20036;-67
2022/02/26 02:11:46;;;;;;;11.65;7.10;;;;;;;0.98;55.77;99815.09;5070824;28;20401;-69
2022/02/26 02:14:11;;;;;;;13.73;7.03;;;;;;;1.00;55.98;99816.75;5070967;28;20123;-69
2022/02/26 02:16:37;;;;;;;12.68;7.60;;;;;;;0.97;55.64;99810.75;5071082;28;20036;-68
2022/02/26 02:19:05;;;;;;;12.90;7.30;;;;;;;1.06;55.76;99820.06;5070984;28;20123;-67
2022/02/26 02:21:30;;;;;;;14.25;7.20;;;;;;;1.05;55.44;99813.91;5070797;28;20465;-68
2022/02/26 02:23:56;;;;;;;13.23;7.65;;;;;;;1.09;55.44;99831.34;5071097;28;20044;-67
2022/02/26 02:26:21;;;;;;;15.57;7.95;;;;;;;1.11;55.59;99828.63;5070922;28;20178;-67
2022/02/26 02:28:47;;;;;;;14.73;7.88;;;;;;;1.14;55.95;99829.38;5070465;28;20032;-66
2022/02/26 02:31:12;;;;;;;15.13;7.55;;;;;;;1.07;55.64;99813.84;5070865;28;20028;-68
2022/02/26 02:33:44;;;;;;;13.70;7.22;;;;;;;0.98;55.77;99783.44;5073657;28;20029;-67
2022/02/26 02:36:10;;;;;;;14.60;8.00;;;;;;;1.13;55.80;99806.56;5074984;28;20048;-68
2022/02/26 02:38:36;;;;;;;11.70;7.05;;;;;;;1.21;55.46;99822.06;5074617;28;20458;-66
2022/02/26 02:41:02;;;;;;;14.80;7.75;;;;;;;1.28;54.94;99831.44;5074868;28;20136;-68
2022/02/26 02:43:28;;;;;;;13.35;6.95;;;;;;;1.30;55.97;99831.34;5075118;28;20035;-68
2022/02/26 02:45:53;;;;;;;11.55;7.00;;;;;;;1.33;55.24;99838.28;5074902;28;20025;-67
2022/02/26 02:48:19;;;;;;;13.10;7.25;;;;;;;1.36;55.60;99844.28;5074461;28;20032;-69
2022/02/26 02:50:44;;;;;;;16.63;7.38;;;;;;;1.27;55.68;99813.00;5074671;28;20025;-66
2022/02/26 02:53:10;;;;;;;12.23;6.95;;;;;;;1.31;55.47;99816.38;5074947;28;20089;-68
2022/02/26 02:55:35;;;;;;;14.23;7.28;;;;;;;1.39;55.20;99835.38;5074581;28;20492;-68
2022/02/26 02:58:01;;;;;;;12.77;7.22;;;;;;;1.38;55.62;99837.16;5074187;28;20021;-67
2022/02/26 03:00:28;;;;;;;11.13;6.63;;;;;;;1.41;55.54;99849.34;5074591;28;20469;-62
2022/02/26 03:02:53;;;;;;;12.20;7.38;;;;;;;1.43;55.29;99836.97;5074992;28;20059;-68
2022/02/26 03:05:20;;;;;;;12.77;7.25;;;;;;;1.26;55.34;99824.47;5074601;28;20422;-69
2022/02/26 03:07:50;;;;;;;12.68;7.40;;;;;;;1.45;55.14;99850.09;5073919;28;20080;-67
2022/02/26 03:10:16;;;;;;;12.95;6.93;;;;;;;1.41;55.36;99836.16;5074306;28;20488;-68
2022/02/26 03:12:42;;;;;;;14.48;8.05;;;;;;;1.47;55.27;99853.53;5074177;28;20120;-69
2022/02/26 03:15:08;;;;;;;14.98;6.82;;;;;;;1.39;55.22;99833.59;5074215;28;20052;-68
2022/02/26 03:17:34;;;;;;;14.02;7.20;;;;;;;1.39;55.16;99830.97;5073711;28;20375;-68
2022/02/26 03:20:00;;;;;;;11.63;6.90;;;;;;;1.47;55.53;99835.06;5073953;28;20028;-69
2022/02/26 03:22:25;;;;;;;15.25;7.97;;;;;;;1.39;55.29;99817.78;5074698;28;20049;-67
2022/02/26 03:24:51;;;;;;;12.52;7.00;;;;;;;1.41;55.66;99820.34;5074197;28;20056;-68
2022/02/26 03:27:17;;;;;;;13.32;7.20;;;;;;;1.40;55.73;99829.19;5073604;28;20043;-68
2022/02/26 03:29:43;;;;;;;13.43;7.85;;;;;;;1.31;55.81;99821.66;5073798;28;20116;-69
2022/02/26 03:32:09;;;;;;;11.68;7.03;;;;;;;1.16;55.48;99808.19;5073993;28;20111;-70
2022/02/26 03:34:35;;;;;;;14.88;8.10;;;;;;;1.34;55.52;99847.91;5073528;28;20480;-69
2022/02/26 03:37:01;;;;;;;13.98;7.47;;;;;;;1.38;56.10;99846.84;5073702;28;20032;-69
2022/02/26 03:39:31;;;;;;;16.50;8.38;;;;;;;0.81;55.53;99748.09;5073948;28;20074;-69
2022/02/26 03:42:05;;;;;;;14.27;7.90;;;;;;;1.47;55.73;99858.81;5055581;28;20048;-69
2022/02/26 03:44:31;;;;;;;14.43;7.55;;;;;;;1.39;55.90;99853.84;5072655;28;20090;-68
2022/02/26 03:46:57;;;;;;;13.90;7.00;;;;;;;1.45;55.74;99861.53;5073662;28;20035;-70
2022/02/26 03:49:23;;;;;;;14.63;7.63;;;;;;;1.48;55.77;99868.44;5073448;28;20032;-70
2022/02/26 03:51:49;;;;;;;15.98;7.78;;;;;;;1.51;55.84;99878.84;5073619;28;20921;-68
2022/02/26 03:54:15;;;;;;;17.20;8.50;;;;;;;1.52;56.24;99877.94;5073263;28;20032;-69
2022/02/26 03:56:41;;;;;;;14.63;7.13;;;;;;;1.56;56.22;99892.69;5073563;28;20032;-70
2022/02/26 03:59:06;;;;;;;13.27;7.65;;;;;;;1.55;56.96;99889.22;5073111;28;20032;-70
2022/02/26 04:01:32;;;;;;;15.82;8.50;;;;;;;1.53;57.65;99892.84;5073164;28;20123;-68
2022/02/26 04:03:58;;;;;;;12.38;7.35;;;;;;;1.53;57.98;99892.84;5073750;28;20051;-68
2022/02/26 04:06:23;;;;;;;16.77;7.88;;;;;;;1.48;58.43;99898.31;5072980;28;20059;-64
2022/02/26 04:08:49;;;;;;;14.27;7.88;;;;;;;1.47;58.53;99904.53;5072977;28;20377;-68
2022/02/26 04:11:14;;;;;;;14.55;8.48;;;;;;;1.25;59.07;99883.44;5073414;28;20032;-67
2022/02/26 04:13:40;;;;;;;14.93;8.27;;;;;;;1.43;59.83;99924.03;5055341;28;20040;-67
2022/02/26 04:16:06;;;;;;;13.80;8.50;;;;;;;1.41;60.27;99920.59;5072909;28;20054;-68
2022/02/26 04:18:32;;;;;;;15.75;8.43;;;;;;;1.45;59.98;99929.25;5072816;28;20024;-64
2022/02/26 04:20:57;;;;;;;16.85;9.20;;;;;;;1.32;60.11;99911.28;5073318;28;20036;-67
2022/02/26 04:23:23;;;;;;;15.38;8.73;;;;;;;1.41;60.27;99926.75;5072635;28;20090;-67
2022/02/26 04:25:48;;;;;;;15.05;8.80;;;;;;;1.39;60.09;99923.31;5072600;28;20028;-68
2022/02/26 04:28:14;;;;;;;15.95;9.30;;;;;;;1.37;60.29;99926.91;5072802;28;20073;-67
2022/02/26 04:30:40;;;;;;;14.20;8.38;;;;;;;1.33;60.22;99926.22;5072723;28;20043;-67
2022/02/26 04:33:07;;;;;;;18.27;10.30;;;;;;;1.26;60.66;99927.34;5072455;28;20466;-68
2022/02/26 04:35:33;;;;;;;16.13;8.98;;;;;;;1.14;60.47;99912.88;5072434;28;20028;-66
2022/02/26 04:37:59;;;;;;;13.70;8.77;;;;;;;1.10;60.75;99914.81;5073294;28;20036;-67
2022/02/26 04:40:24;;;;;;;15.88;8.98;;;;;;;1.07;60.78;99930.72;5072558;28;20037;-68
2022/02/26 04:42:50;;;;;;;15.68;9.57;;;;;;;1.02;61.22;99934.47;5072334;28;20033;-68
2022/02/26 04:45:16;;;;;;;14.50;9.07;;;;;;;0.97;61.54;99927.63;5072108;28;20055;-68
2022/02/26 04:47:42;;;;;;;15.90;9.20;;;;;;;0.98;61.85;99939.00;5072703;28;20036;-68
2022/02/26 04:50:11;;;;;;;19.90;10.38;;;;;;;0.95;61.71;99932.06;5072473;28;20428;-68
2022/02/26 04:52:37;;;;;;;17.52;9.90;;;;;;;0.95;61.90;99944.41;5071984;28;20021;-67
2022/02/26 04:55:03;;;;;;;19.48;10.35;;;;;;;0.93;62.29;99938.34;5071139;28;20024;-66
2022/02/26 04:57:29;;;;;;;17.75;9.90;;;;;;;0.93;62.31;99936.53;5072064;28;20504;-68
2022/02/26 04:59:55;;;;;;;19.17;10.52;;;;;;;0.98;61.87;99944.28;5071917;28;20024;-68
2022/02/26 05:02:20;;;;;;;18.55;9.82;;;;;;;1.04;61.69;99938.75;5071928;28;20457;-68
2022/02/26 05:04:46;;;;;;;17.90;10.25;;;;;;;1.11;61.63;99949.94;5071428;28;20525;-66
2022/02/26 05:07:15;;;;;;;18.58;10.13;;;;;;;1.19;61.10;99954.91;5071784;28;20032;-67
2022/02/26 05:09:42;;;;;;;18.13;10.07;;;;;;;1.27;61.50;99963.34;5069269;28;20032;-68
2022/02/26 05:12:08;;;;;;;22.20;10.52;;;;;;;1.36;61.25;99963.00;5050133;28;20039;-68
2022/02/26 05:14:34;;;;;;;19.02;9.95;;;;;;;1.50;60.29;99969.50;5051832;28;20040;-64
2022/02/26 05:16:59;;;;;;;20.75;10.77;;;;;;;1.46;60.69;99955.59;5052530;28;20029;-68
2022/02/26 05:19:25;;;;;;;19.23;10.80;;;;;;;1.58;60.42;99981.44;5051961;28;20029;-68
2022/02/26 05:21:51;;;;;;;19.15;10.30;;;;;;;1.58;60.30;99954.22;5051290;28;20187;-68
2022/02/26 05:24:16;;;;;;;19.75;10.13;;;;;;;1.51;59.95;99944.81;5051249;28;20033;-68
2022/02/26 05:26:42;;;;;;;19.33;9.95;;;;;;;1.74;59.82;99977.31;5051889;28;20491;-69
2022/02/26 05:29:08;;;;;;;19.65;10.40;;;;;;;1.76;59.71;99976.34;5051698;28;20061;-68
2022/02/26 05:31:34;;;;;;;21.30;10.38;;;;;;;1.70;59.97;99968.69;5051357;28;20060;-69
2022/02/26 05:34:00;;;;;;;18.45;10.63;;;;;;;1.82;59.83;99984.00;5051108;28;20035;-70
2022/02/26 05:36:26;;;;;;;19.92;10.45;;;;;;;1.90;59.15;99974.88;5051278;28;20114;-71
2022/02/26 05:38:51;;;;;;;17.40;9.75;;;;;;;1.95;59.26;99978.22;5050887;28;20462;-69
2022/02/26 05:41:17;;;;;;;20.92;10.65;;;;;;;2.01;59.08;99986.72;5050877;28;20029;-70
2022/02/26 05:43:42;;;;;;;18.02;10.05;;;;;;;2.10;59.37;99982.81;5049849;28;20040;-64
2022/02/26 05:46:08;;;;;;;16.70;9.43;;;;;;;2.12;59.36;99975.69;5050045;28;20033;-69
2022/02/26 05:48:33;;;;;;;19.65;10.15;;;;;;;2.24;59.26;99986.66;5051013;28;20037;-69
2022/02/26 05:51:01;;;;;;;16.98;9.90;;;;;;;2.32;58.57;99991.63;5050986;28;20082;-67
2022/02/26 05:53:28;;;;;;;19.80;10.30;;;;;;;2.37;59.03;100001.03;5051129;28;20037;-67
2022/02/26 05:55:53;;;;;;;17.35;10.38;;;;;;;2.47;58.81;100003.31;5050994;28;20037;-68
2022/02/26 05:58:19;;;;;;;20.65;10.77;;;;;;;2.53;58.00;100009.19;5049606;28;20154;-68
2022/02/26 06:00:44;;;;;;;21.42;10.55;;;;;;;2.60;58.25;100011.53;5056740;28;20461;-68
2022/02/26 06:03:10;;;;;;;18.85;10.52;;;;;;;2.66;58.07;100012.13;5070800;28;20028;-69
2022/02/26 06:05:35;;;;;;;18.85;10.30;;;;;;;2.72;57.73;100024.19;5071120;28;20028;-67
2022/02/26 06:08:01;;;;;;;18.65;10.43;;;;;;;2.76;57.94;100024.94;5070658;28;20428;-69
2022/02/26 06:10:27;;;;;;;21.60;9.75;;;;;;;2.71;57.75;100022.47;5070617;28;20051;-70
2022/02/26 06:12:52;;;;;;;18.80;10.73;;;;;;;2.66;57.61;100017.44;5070254;28;20029;-67
2022/02/26 06:15:18;;;;;;;19.27;10.45;;;;;;;2.78;57.90;100031.88;5049397;28;20055;-70
2022/02/26 06:17:43;;;;;;;18.75;10.50;;;;;;;2.84;57.66;100039.53;5054763;28;20103;-67
2022/02/26 06:20:09;;;;;;;17.45;9.65;;;;;;;2.73;57.74;100021.50;5068515;28;20752;-67
2022/02/26 06:22:35;;;;;;;15.02;9.05;;;;;;;2.93;57.51;100051.47;5069392;28;20052;-68
2022/02/26 06:25:01;;;;;;;18.38;9.57;;;;;;;2.99;57.39;100056.47;5051620;28;20041;-68
2022/02/26 06:27:26;;;;;;;16.13;9.63;;;;;;;2.89;57.45;100028.72;5069029;28;20037;-69
2022/02/26 06:29:52;;;;;;;20.55;9.30;;;;;;;3.10;57.26;100060.41;5069230;28;20039;-70
2022/02/26 06:32:17;;;;;;;14.68;8.98;;;;;;;3.11;56.54;100055.06;5069637;28;20060;-72
2022/02/26 06:34:43;;;;;;;15.15;8.80;;;;;;;3.21;56.63;100060.78;5051417;28;20031;-73
2022/02/26 06:37:08;;;;;;;14.60;8.50;;;;;;;3.21;56.63;100060.78;5048732;28;20021;-65
2022/02/26 06:39:34;;;;;;;18.13;9.32;;;;;;;2.98;56.31;100017.75;5069985;28;20032;-74
2022/02/26 06:41:59;;;;;;;17.33;9.73;;;;;;;3.05;56.56;100034.19;5070967;28;20029;-74
2022/02/26 06:44:25;;;;;;;18.92;9.55;;;;;;;3.21;56.55;100060.78;5070975;28;20095;-72
2022/02/26 06:46:51;;;;;;;23.90;9.82;;;;;;;3.31;56.51;100071.81;5052473;28;20054;-71
2022/02/26 06:49:16;;;;;;;16.98;8.95;;;;;;;3.35;56.79;100072.50;5069948;28;20031;-73
2022/02/26 06:51:42;;;;;;;20.73;9.63;;;;;;;3.47;56.86;100068.44;5070490;28;20060;-75
2022/02/26 06:54:08;;;;;;;16.63;8.80;;;;;;;3.54;56.17;100073.38;5071248;28;20496;-70
2022/02/26 06:56:34;;;;;;;17.23;9.13;;;;;;;3.63;55.90;100081.81;5070583;28;20037;-67
2022/02/26 06:59:00;;;;;;;16.73;9.23;;;;;;;3.71;56.43;100079.66;5052028;28;20035;-73
2022/02/26 07:01:26;;;;;;;15.00;9.02;;;;;;;3.79;54.82;100088.09;5070513;28;20354;-73
2022/02/26 07:03:51;;;;;;;17.50;10.25;;;;;;;3.81;55.04;100078.25;5070452;28;20115;-75
2022/02/26 07:06:17;;;;;;;16.42;9.55;;;;;;;3.81;55.09;100088.03;5072311;28;20032;-74
2022/02/26 07:08:43;;;;;;;19.00;8.40;;;;;;;3.70;55.04;100080.59;5072748;28;20104;-73
2022/02/26 07:11:08;;;;;;;17.13;7.80;;;;;;;3.72;55.26;100087.50;5036352;28;20028;-73
2022/02/26 07:13:34;;;;;;;15.20;8.05;;;;;;;3.72;55.40;100091.97;5070367;28;20127;-73
2022/02/26 07:16:00;;;;;;;16.10;8.30;;;;;;;3.75;55.45;100086.50;5070244;28;20025;-72
2022/02/26 07:18:26;;;;;;;13.60;8.73;;;;;;;3.62;54.85;100056.25;5069736;28;20021;-72
2022/02/26 07:20:51;;;;;;;16.60;8.48;;;;;;;3.79;54.95;100087.25;5072803;28;20035;-73
2022/02/26 07:23:17;;;;;;;16.20;8.52;;;;;;;3.90;55.38;100108.75;5073714;28;20032;-72
2022/02/26 07:25:45;;;;;;;20.40;9.15;;;;;;;3.83;54.80;100084.34;5055412;28;20045;-75
2022/02/26 07:28:15;;;;;;;18.38;9.18;;;;;;;4.04;54.83;100118.69;5055630;28;20032;-65
2022/02/26 07:30:41;;;;;;;17.75;9.15;;;;;;;4.05;54.63;100115.09;5073653;28;20041;-73
2022/02/26 07:33:07;;;;;;;17.73;9.25;;;;;;;4.06;55.00;100110.66;5073638;28;20111;-72
2022/02/26 07:35:34;;;;;;;15.07;9.00;;;;;;;4.16;55.19;100130.47;5073486;28;20108;-73
2022/02/26 07:37:59;;;;;;;24.52;9.02;;;;;;;4.23;54.13;100120.44;5072927;28;20056;-73
2022/02/26 07:40:25;;;;;;;15.93;8.82;;;;;;;4.29;54.03;100125.41;5055334;28;20499;-74
2022/02/26 07:42:51;;;;;;;16.33;8.63;;;;;;;4.31;54.19;100129.72;5073712;28;20028;-75
2022/02/26 07:45:17;;;;;;;16.45;8.55;;;;;;;4.35;53.94;100132.22;5055359;28;20036;-72
2022/02/26 07:47:42;;;;;;;11.70;7.40;;;;;;;4.32;53.69;100130.56;5070479;28;20040;-66
2022/02/26 07:50:09;;;;;;;12.75;7.25;;;;;;;4.27;54.07;100135.25;5073038;28;20025;-69
2022/02/26 07:52:35;;;;;;;12.10;6.63;;;;;;;4.28;53.73;100136.97;5073029;28;20028;-75
2022/02/26 07:55:02;;;;;;;17.48;7.35;;;;;;;4.35;54.31;100143.69;5073343;28;20035;-76
2022/02/26 07:57:30;;;;;;;8.95;6.22;;;;;;;4.25;53.65;100127.38;5072767;28;20059;-74
2022/02/26 07:59:56;;;;;;;10.98;5.82;;;;;;;4.30;53.85;100141.25;5055084;28;20028;-74
2022/02/26 08:02:22;;;;;;;9.88;6.35;;;;;;;4.31;53.50;100131.50;5073418;28;20144;-73
2022/02/26 08:04:47;;;;;;;14.40;6.53;;;;;;;4.32;54.07;100130.56;5072942;28;20478;-75
2022/02/26 08:07:13;;;;;;;11.73;6.35;;;;;;;4.40;53.57;100138.13;5042491;28;20032;-65
2022/02/26 08:09:40;;;;;;;14.73;6.10;;;;;;;4.49;53.51;100143.00;5053447;28;20032;-75
2022/02/26 08:12:06;;;;;;;12.00;6.40;;;;;;;4.53;53.13;100141.03;5053496;28;20389;-73
2022/02/26 08:14:32;;;;;;;10.25;5.70;;;;;;;4.60;52.94;100142.47;5072500;28;20031;-75
2022/02/26 08:16:58;;;;;;;9.63;5.18;;;;;;;4.48;52.51;100112.13;5072125;28;20036;-76
2022/02/26 08:19:24;;;;;;;9.55;5.00;;;;;;;4.68;52.46;100128.78;5055452;28;20024;-72
2022/02/26 08:21:50;;;;;;;11.02;5.78;;;;;;;4.81;52.72;100137.84;5072677;28;20398;-75
2022/02/26 08:24:17;;;;;;;11.95;5.88;;;;;;;4.86;51.99;100133.16;5072516;28;20036;-74
2022/02/26 08:26:45;;;;;;;9.00;5.38;;;;;;;4.91;52.67;100138.22;5072871;28;20597;-73
2022/02/26 08:29:11;;;;;;;10.70;5.57;;;;;;;4.89;51.93;100135.63;5054712;28;20024;-69
2022/02/26 08:31:37;;;;;;;9.25;4.97;;;;;;;4.70;52.11;100101.25;5071614;28;20032;-73
2022/02/26 08:34:02;;;;;;;8.52;5.13;;;;;;;4.81;52.14;100118.41;5072784;28;20033;-74
2022/02/26 08:36:29;;;;;;;7.57;4.53;;;;;;;4.96;51.62;100141.50;5055187;28;20032;-75
2022/02/26 08:38:55;;;;;;;10.00;5.25;;;;;;;4.79;51.31;100105.22;5073380;28;20036;-73
2022/02/26 08:41:20;;;;;;;13.13;5.47;;;;;;;5.10;52.04;100151.38;5073003;28;20089;-73
2022/02/26 08:43:46;;;;;;;11.68;5.45;;;;;;;5.20;51.61;100154.41;5072323;28;20089;-71
2022/02/26 08:46:12;;;;;;;10.63;5.45;;;;;;;5.27;51.61;100158.44;5072629;28;20117;-74
2022/02/26 08:48:37;;;;;;;10.65;5.60;;;;;;;5.27;51.35;100141.66;5072479;28;20107;-73
2022/02/26 08:51:03;;;;;;;10.85;5.93;;;;;;;5.43;50.93;100152.31;5072392;28;20040;-72
2022/02/26 08:53:28;;;;;;;8.73;5.30;;;;;;;5.48;50.61;100147.59;5053849;28;20035;-70
2022/02/26 08:55:54;;;;;;;10.48;5.80;;;;;;;5.49;50.40;100140.53;5054069;28;20028;-73
2022/02/26 08:58:20;;;;;;;9.20;5.43;;;;;;;5.59;50.37;100153.22;5072685;28;20036;-74
2022/02/26 09:00:46;;;;;;;15.75;5.47;;;;;;;5.61;50.39;100161.09;5068216;28;20044;-67
2022/02/26 09:03:12;;;;;;;9.90;5.57;;;;;;;5.62;50.05;100156.63;5071860;28;20358;-73
2022/02/26 09:05:38;;;;;;;13.77;5.38;;;;;;;5.66;50.30;100166.16;5053910;28;20031;-71
2022/02/26 09:08:03;;;;;;;15.32;5.22;;;;;;;5.47;49.89;100116.69;5063256;28;20025;-68
2022/02/26 09:10:29;;;;;;;12.05;5.47;;;;;;;5.78;49.89;100157.50;5070457;28;20040;-70
2022/02/26 09:12:55;;;;;;;13.18;4.85;;;;;;;5.85;49.68;100155.34;5071684;28;20043;-68
2022/02/26 09:15:21;;;;;;;8.50;4.57;;;;;;;5.87;49.54;100164.97;5071931;28;20036;-68
2022/02/26 09:17:46;;;;;;;9.73;5.07;;;;;;;5.92;49.31;100170.03;5054923;28;20036;-67
2022/02/26 09:20:13;;;;;;;9.18;4.45;;;;;;;5.97;49.09;100165.31;5054532;28;20035;-71
2022/02/26 09:22:40;;;;;;;12.05;4.85;;;;;;;6.01;48.81;100168.66;5071596;28;20044;-71
2022/02/26 09:25:06;;;;;;;8.70;5.03;;;;;;;6.05;49.02;100172.91;5071643;28;20174;-75
2022/02/26 09:27:33;;;;;;;11.05;4.95;;;;;;;6.06;48.95;100160.44;5071718;28;20035;-74
2022/02/26 09:29:59;;;;;;;13.65;5.57;;;;;;;6.11;49.03;100155.72;5072134;28;20036;-71
2022/02/26 09:32:27;;;;;;;11.20;4.03;;;;;;;6.23;48.41;100178.09;5071663;28;20569;-73
2022/02/26 09:34:54;;;;;;;9.85;4.30;;;;;;;6.11;48.83;100175.19;5071267;28;20028;-73
2022/02/26 09:37:19;;;;;;;9.73;4.20;;;;;;;6.04;48.01;100168.53;5054023;28;20524;-72
2022/02/26 09:39:45;;;;;;;7.78;3.90;;;;;;;5.98;48.85;100167.03;5071880;28;20116;-72
2022/02/26 09:42:11;;;;;;;6.38;4.07;;;;;;;5.97;48.93;100181.25;5070263;28;20458;-70
2022/02/26 09:44:36;;;;;;;7.93;4.15;;;;;;;5.93;49.16;100197.47;5071294;28;20027;-70
2022/02/26 09:47:02;;;;;;;10.18;4.63;;;;;;;5.84;48.83;100183.75;5071072;28;20025;-71
2022/02/26 09:49:27;;;;;;;10.25;4.32;;;;;;;5.78;48.85;100183.22;5071223;28;20031;-72
2022/02/26 09:51:53;;;;;;;5.15;3.80;;;;;;;5.67;49.19;100184.69;5036776;28;20116;-70
2022/02/26 09:54:18;;;;;;;10.25;4.30;;;;;;;5.65;49.03;100189.19;5053209;28;20086;-72
2022/02/26 09:56:44;;;;;;;13.13;4.55;;;;;;;5.62;49.36;100201.78;5049620;28;20115;-69
2022/02/26 09:59:11;;;;;;;7.63;4.30;;;;;;;5.55;49.35;100188.84;5051180;28;20403;-69
2022/02/26 10:02:09;;;;;;;9.85;4.18;;;;;;;5.59;50.24;100187.75;5050707;28;20036;-68
2022/02/26 10:04:36;;;;;;;6.88;3.70;;;;;;;5.56;49.23;100195.00;5043563;28;20514;-68
2022/02/26 10:07:10;;;;;;;8.70;4.07;;;;;;;5.53;50.04;100188.06;5051446;28;20096;-71
2022/02/26 10:09:45;;;;;;;7.28;3.60;;;;;;;5.55;49.94;100193.28;5050579;28;20082;-70
2022/02/26 10:12:18;;;;;;;6.45;3.75;;;;;;;5.54;49.52;100197.72;5050677;28;20039;-69
2022/02/26 10:14:43;;;;;;;7.88;3.58;;;;;;;5.30;49.61;100158.31;5051469;28;20037;-66
2022/02/26 10:17:09;;;;;;;5.75;3.13;;;;;;;5.46;49.17;100195.50;5051716;28;20036;-72
2022/02/26 10:19:35;;;;;;;4.55;2.83;;;;;;;5.49;48.87;100199.78;5051161;28;20029;-70
2022/02/26 10:22:07;;;;;;;4.95;2.50;;;;;;;5.42;49.78;100199.25;5050793;28;20049;-67
2022/02/26 10:24:34;;;;;;;6.75;3.20;;;;;;;5.25;49.69;100194.00;5050902;28;20044;-68
2022/02/26 10:27:05;;;;;;;8.00;3.33;;;;;;;5.38;49.89;100207.47;5050738;28;20071;-69
2022/02/26 10:29:36;;;;;;;5.07;2.70;;;;;;;5.46;49.28;100206.13;5050824;28;20033;-68
2022/02/26 10:32:04;;;;;;;5.05;2.90;;;;;;;5.46;48.99;100203.47;5050904;28;20494;-68
2022/02/26 10:34:33;;;;;;;7.47;3.38;;;;;;;5.57;49.15;100213.53;5051014;28;20522;-67
2022/02/26 10:37:02;;;;;;;6.00;2.75;;;;;;;5.59;48.96;100210.78;5049475;28;20028;-62
2022/02/26 10:39:33;;;;;;;7.00;3.50;;;;;;;5.62;48.70;100215.91;5047602;28;20078;-71
2022/02/26 10:41:58;;;;;;;7.50;3.38;;;;;;;5.60;49.26;100218.69;5050798;28;20029;-70
2022/02/26 10:44:25;;;;;;;6.03;3.00;;;;;;;5.60;48.93;100224.00;5050694;28;20356;-68
2022/02/26 10:46:51;;;;;;;4.93;2.83;;;;;;;5.55;48.95;100220.72;5049534;28;20044;-72
2022/02/26 10:49:18;;;;;;;6.18;2.80;;;;;;;5.55;49.32;100209.22;5050122;28;20029;-68
2022/02/26 10:51:45;;;;;;;8.18;2.83;;;;;;;5.63;49.16;100222.09;5050900;28;20060;-65
2022/02/26 10:54:19;;;;;;;8.25;2.90;;;;;;;5.71;49.16;100225.19;5052984;28;20036;-73
2022/02/26 10:56:45;;;;;;;5.07;2.47;;;;;;;5.67;48.89;100227.19;5054737;28;20040;-72
2022/02/26 10:59:13;;;;;;;4.10;2.75;;;;;;;5.60;48.95;100226.66;5054080;28;20068;-73
2022/02/26 11:01:39;;;;;;;5.65;2.75;;;;;;;5.63;48.68;100235.38;5053379;28;20037;-70
2022/02/26 11:04:05;;;;;;;8.82;3.13;;;;;;;5.65;48.98;100225.53;5074426;28;20032;-67
2022/02/26 11:06:32;;;;;;;6.88;2.80;;;;;;;5.70;48.36;100219.03;5074297;28;20158;-67
2022/02/26 11:09:00;;;;;;;8.85;3.47;;;;;;;5.91;49.01;100226.78;5056073;28;20036;-69
2022/02/26 11:11:26;;;;;;;7.10;2.90;;;;;;;6.08;47.88;100227.66;5073966;28;20025;-64
2022/02/26 11:13:54;;;;;;;5.65;2.65;;;;;;;6.22;47.49;100229.56;5074228;28;20732;-68
2022/02/26 11:16:21;;;;;;;5.90;2.90;;;;;;;6.16;47.39;100231.63;5074168;28;20028;-68
2022/02/26 11:18:49;;;;;;;8.88;3.05;;;;;;;5.94;47.95;100193.84;5073765;28;20029;-68
2022/02/26 11:21:17;;;;;;;3.97;2.60;;;;;;;6.06;47.82;100233.09;5073204;28;20114;-67
2022/02/26 11:23:45;;;;;;;9.20;2.80;;;;;;;5.95;47.69;100238.97;5071814;28;20420;-69
2022/02/26 11:26:11;;;;;;;5.30;2.83;;;;;;;5.65;48.27;100194.50;5073753;28;20032;-69